createdAt,value
2018-07-31T05:43:02.957Z,24.74
2018-07-31T05:44:05.682Z,24.83
2018-07-31T05:45:08.321Z,24.94
2018-07-31T05:46:14.475Z,25.00
2018-07-31T05:47:17.080Z,25.13
2018-07-31T05:48:20.049Z,25.21
2018-07-31T05:49:22.635Z,25.28
2018-07-31T05:50:25.223Z,25.40
2018-07-31T05:51:27.777Z,24.30
2018-07-31T05:52:30.350Z,25.44
2018-07-31T05:53:32.898Z,25.01
2018-07-31T05:54:35.838Z,25.23
2018-07-31T05:55:38.426Z,25.26
2018-07-31T05:56:41.024Z,25.35
2018-07-31T05:57:43.593Z,25.35
2018-07-31T05:58:46.139Z,25.43
2018-07-31T05:59:48.688Z,25.41
2018-07-31T06:00:51.657Z,25.38
2018-07-31T06:01:54.286Z,25.32
2018-07-31T06:02:56.869Z,25.18
2018-07-31T06:03:59.447Z,24.95
2018-07-31T06:05:02.676Z,24.88
2018-07-31T06:06:05.227Z,24.88
2018-07-31T06:07:08.334Z,24.85
2018-07-31T06:08:10.918Z,24.84
2018-07-31T06:09:13.459Z,24.87
2018-07-31T06:10:16.032Z,24.90
2018-07-31T06:11:18.888Z,24.96
2018-07-31T06:12:21.503Z,25.10
2018-07-31T06:13:24.500Z,25.29
2018-07-31T06:14:27.081Z,25.44
2018-07-31T06:15:29.727Z,25.53
2018-07-31T06:16:32.321Z,25.51
2018-07-31T06:17:34.927Z,25.45
2018-07-31T06:18:37.484Z,25.27
2018-07-31T11:44:22.039Z,26.25
2018-07-31T11:45:24.846Z,26.38
2018-07-31T11:46:27.387Z,26.53
2018-07-31T11:47:29.968Z,26.67
2018-07-31T11:48:32.515Z,26.79
2018-07-31T11:49:35.369Z,26.87
2018-07-31T11:50:40.118Z,26.93
2018-07-31T11:51:42.674Z,26.96
2018-07-31T11:52:45.277Z,27.02
2018-07-31T11:53:47.829Z,27.03
2018-07-31T11:54:50.901Z,27.04
2018-07-31T11:55:53.880Z,27.06
2018-07-31T11:56:56.443Z,27.07
2018-07-31T11:57:59.018Z,27.08
2018-07-31T11:59:01.666Z,27.07
2018-07-31T12:00:04.240Z,27.07
2018-07-31T12:01:07.779Z,27.09
2018-07-31T12:02:10.723Z,27.10
2018-07-31T12:03:13.270Z,26.08
2018-07-31T12:04:19.395Z,27.10
2018-07-31T12:05:22.464Z,27.11
2018-07-31T12:06:25.007Z,27.10
2018-07-31T12:07:28.373Z,27.09
2018-07-31T12:08:31.230Z,27.08
2018-07-31T12:09:33.784Z,27.09
2018-07-31T12:10:36.354Z,27.09
2018-07-31T12:11:38.920Z,27.09
2018-07-31T12:12:41.564Z,27.09
2018-07-31T12:13:45.114Z,27.11
2018-07-31T12:14:47.984Z,27.10
2018-07-31T12:15:50.824Z,27.10
2018-07-31T12:16:53.499Z,27.11
2018-07-31T12:17:56.635Z,27.12
2018-07-31T12:18:59.382Z,26.10
2018-07-31T12:20:01.953Z,27.12
2018-07-31T12:21:08.504Z,27.13
2018-07-31T12:22:11.169Z,27.13
2018-07-31T12:23:13.727Z,27.15
2018-07-31T12:24:16.294Z,27.15
2018-07-31T12:25:18.873Z,27.15
2018-07-31T12:26:21.535Z,27.16
2018-07-31T12:27:27.527Z,27.15
2018-07-31T12:28:31.089Z,27.17
2018-07-31T12:29:33.656Z,27.15
2018-07-31T12:30:36.244Z,27.15
2018-07-31T12:31:38.852Z,26.13
2018-07-31T13:20:26.434Z,26.50
2018-07-31T13:21:29.140Z,26.61
2018-07-31T13:22:31.692Z,26.75
2018-07-31T13:23:34.298Z,26.88
2018-07-31T13:24:38.242Z,27.00
2018-07-31T13:25:41.108Z,27.09
2018-07-31T13:26:44.675Z,27.15
2018-07-31T13:27:48.690Z,27.18
2018-07-31T13:28:51.378Z,27.22
2018-07-31T13:29:55.564Z,27.24
2018-07-31T13:30:59.749Z,27.26
2018-07-31T13:32:04.636Z,27.27
2018-07-31T13:33:07.398Z,27.28
2018-07-31T13:34:11.138Z,27.29
2018-07-31T13:35:15.063Z,27.30
2018-07-31T13:36:17.704Z,27.31
2018-07-31T13:37:24.951Z,27.32
2018-07-31T13:38:28.057Z,27.38
2018-07-31T13:39:30.703Z,27.39
2018-07-31T13:40:33.252Z,27.38
2018-07-31T13:41:38.791Z,27.39
2018-07-31T13:42:42.456Z,27.38
2018-07-31T13:43:45.112Z,27.37
2018-07-31T13:44:48.672Z,27.36
2018-07-31T13:45:51.847Z,27.38
2018-07-31T13:46:56.628Z,27.38
2018-07-31T13:48:01.324Z,27.37
2018-07-31T13:49:05.590Z,27.38
2018-07-31T13:50:09.028Z,27.39
2018-07-31T13:51:12.137Z,27.40
2018-07-31T13:52:15.644Z,27.40
2018-07-31T13:53:18.673Z,27.41
2018-07-31T13:54:21.267Z,27.43
2018-07-31T13:55:23.977Z,27.40
2018-07-31T13:56:26.546Z,27.42
2018-07-31T13:57:29.462Z,27.43
2018-07-31T13:58:32.912Z,27.42
2018-07-31T13:59:35.453Z,27.42
2018-07-31T14:00:41.365Z,27.41
2018-07-31T14:01:43.947Z,27.41
2018-07-31T16:01:36.770Z,26.89
2018-07-31T16:02:39.379Z,26.99
2018-07-31T16:03:41.996Z,27.12
2018-07-31T16:04:45.257Z,27.24
2018-07-31T16:05:47.912Z,27.33
2018-07-31T16:06:51.511Z,27.43
2018-07-31T16:07:54.091Z,27.50
2018-07-31T16:08:57.282Z,27.53
2018-07-31T16:09:59.839Z,27.53
2018-07-31T16:11:02.432Z,27.53
2018-07-31T16:12:04.981Z,27.53
2018-07-31T16:13:08.958Z,27.55
2018-07-31T16:14:12.446Z,27.56
2018-07-31T16:15:15.079Z,27.55
2018-07-31T16:16:17.760Z,27.57
2018-07-31T16:17:20.537Z,27.55
2018-07-31T16:18:23.132Z,27.53
2018-07-31T16:19:26.010Z,27.53
2018-07-31T16:20:28.586Z,27.52
2018-07-31T16:21:33.660Z,27.52
2018-07-31T16:22:36.213Z,27.55
2018-07-31T16:23:39.747Z,27.56
2018-07-31T16:24:42.337Z,27.56
2018-07-31T16:25:45.281Z,27.60
2018-07-31T16:26:47.901Z,27.63
2018-07-31T16:27:50.814Z,27.61
2018-07-31T16:28:53.459Z,27.59
2018-07-31T16:29:56.019Z,27.56
2018-07-31T16:30:58.754Z,27.52
2018-07-31T16:32:01.696Z,27.53
2018-07-31T16:33:04.227Z,27.58
2018-07-31T16:34:07.784Z,27.59
2018-07-31T16:35:10.362Z,27.57
2018-07-31T16:36:12.923Z,26.61
2018-07-31T16:37:15.474Z,27.61
2018-07-31T16:38:19.348Z,27.64
2018-07-31T16:39:23.016Z,27.64
2018-07-31T16:40:30.490Z,27.64
2018-07-31T16:41:34.695Z,27.64
2018-07-31T16:42:38.264Z,27.62
2018-07-31T16:43:41.116Z,27.60
2018-07-31T16:44:44.720Z,27.60
2018-07-31T16:45:48.909Z,27.57
2018-07-31T16:46:51.549Z,27.55
2018-07-31T16:47:55.319Z,27.54
2018-07-31T16:49:01.427Z,27.54
2018-07-31T16:50:04.541Z,27.55
2018-07-31T16:51:07.571Z,27.57
2018-07-31T16:52:10.199Z,27.54
2018-07-31T16:53:12.903Z,27.57
2018-07-31T16:54:15.457Z,27.58
2018-07-31T16:55:18.636Z,27.58
2018-07-31T16:56:21.226Z,27.55
2018-07-31T16:57:25.492Z,27.52
2018-07-31T16:58:28.087Z,27.52
2018-07-31T16:59:31.706Z,27.52
2018-07-31T17:00:34.530Z,27.56
2018-07-31T17:01:37.645Z,27.60
2018-07-31T17:02:40.226Z,27.60
2018-07-31T17:03:44.304Z,27.63
2018-07-31T17:04:47.513Z,27.64
2018-07-31T17:05:51.276Z,27.61
2018-07-31T17:06:53.821Z,27.58
2018-07-31T17:07:57.243Z,27.57
2018-07-31T17:08:59.785Z,27.56
2018-07-31T17:10:02.804Z,27.58
2018-07-31T17:11:05.982Z,27.57
2018-07-31T17:12:08.564Z,27.58
2018-07-31T17:13:12.058Z,27.58
2018-07-31T17:14:15.467Z,26.98
2018-07-31T17:15:19.576Z,27.66
2018-07-31T17:16:22.585Z,27.63
2018-07-31T17:17:25.296Z,27.58
2018-07-31T17:18:29.516Z,27.56
2018-07-31T17:19:32.058Z,27.56
2018-07-31T17:20:34.606Z,27.53
2018-07-31T17:21:40.155Z,27.52
2018-07-31T17:22:43.162Z,27.53
2018-07-31T17:23:45.792Z,27.52
2018-07-31T17:24:49.454Z,27.53
2018-07-31T17:25:52.040Z,27.52
2018-07-31T17:26:54.648Z,27.53
2018-07-31T17:27:57.219Z,27.55
2018-07-31T17:29:00.353Z,27.55
2018-07-31T17:30:04.553Z,27.56
2018-07-31T17:31:07.119Z,27.57
2018-07-31T17:32:10.437Z,27.56
2018-07-31T18:13:27.834Z,27.00
2018-07-31T18:14:30.480Z,27.06
2018-07-31T18:15:35.301Z,27.17
2018-07-31T18:17:46.845Z,27.39
2018-07-31T18:18:49.841Z,27.45
2018-07-31T18:19:53.416Z,27.48
2018-07-31T18:20:56.144Z,27.51
2018-07-31T18:21:58.753Z,27.52
2018-07-31T18:23:01.341Z,27.55
2018-07-31T18:24:04.607Z,27.55
2018-07-31T18:25:08.702Z,27.55
2018-07-31T18:26:11.284Z,27.55
2018-07-31T18:27:15.752Z,27.55
2018-07-31T18:28:18.315Z,27.56
2018-07-31T18:29:20.888Z,27.57
2018-07-31T18:30:23.522Z,27.58
2018-07-31T18:31:26.375Z,27.58
2018-07-31T18:32:31.576Z,26.57
2018-07-31T18:33:34.516Z,27.61
2018-07-31T18:34:37.101Z,27.61
2018-07-31T18:35:40.550Z,27.59
2018-07-31T18:36:43.095Z,27.60
2018-07-31T18:37:47.278Z,27.58
2018-07-31T18:38:50.454Z,27.58
2018-07-31T18:39:55.689Z,27.60
2018-07-31T18:41:01.341Z,27.60
2018-07-31T18:42:05.038Z,26.55
2018-07-31T18:43:08.600Z,27.63
2018-07-31T18:44:11.511Z,27.62
2018-07-31T18:45:15.528Z,26.73
2018-07-31T18:46:18.120Z,27.61
2018-07-31T18:47:20.724Z,27.61
2018-07-31T18:48:23.287Z,27.61
2018-07-31T18:49:27.460Z,27.61
2018-07-31T18:50:30.457Z,27.61
2018-07-31T18:51:33.929Z,27.62
2018-07-31T18:52:37.367Z,27.63
2018-07-31T18:53:39.986Z,27.65
2018-07-31T18:56:04.484Z,27.64
2018-07-31T18:57:07.105Z,27.63
2018-07-31T18:58:10.282Z,27.65
2018-07-31T18:59:12.963Z,27.64
2018-07-31T19:00:15.815Z,27.65
2018-07-31T19:01:19.490Z,27.64
2018-07-31T19:02:22.533Z,27.63
2018-07-31T19:03:25.274Z,27.64
2018-07-31T19:04:27.940Z,27.67
2018-07-31T19:05:30.554Z,27.70
2018-07-31T19:06:33.400Z,27.72
2018-07-31T19:07:36.009Z,27.70
2018-07-31T19:08:40.609Z,26.88
2018-07-31T19:09:43.156Z,27.70
2018-07-31T19:10:45.726Z,27.69
2018-07-31T19:11:48.690Z,27.69
2018-07-31T19:12:51.248Z,27.71
2018-07-31T19:15:01.029Z,27.72
2018-07-31T19:16:03.661Z,27.72
2018-07-31T19:17:06.273Z,27.71
2018-07-31T19:18:10.044Z,27.73
2018-07-31T19:19:12.613Z,27.75
2018-07-31T19:20:15.356Z,27.81
2018-07-31T19:21:19.330Z,27.79
2018-07-31T19:22:25.530Z,26.74
2018-07-31T19:23:29.178Z,27.75
2018-07-31T19:24:32.058Z,27.77
2018-07-31T19:25:34.617Z,27.81
2018-07-31T19:26:38.097Z,27.84
2018-07-31T19:27:41.981Z,27.86
2018-07-31T19:28:44.560Z,27.85
2018-07-31T19:29:47.200Z,27.85
2018-07-31T19:30:50.405Z,27.82
2018-07-31T19:31:52.998Z,27.82
2018-07-31T19:32:56.280Z,27.83
2018-07-31T19:33:59.437Z,27.85
2018-07-31T19:35:02.049Z,27.83
2018-07-31T19:36:04.593Z,27.85
2018-07-31T19:37:07.283Z,27.85
2018-07-31T19:38:10.499Z,27.86
2018-07-31T19:39:13.177Z,27.84
2018-07-31T19:40:16.078Z,27.84
2018-07-31T19:41:18.685Z,27.84
2018-07-31T19:42:21.257Z,27.84
2018-07-31T19:43:24.801Z,27.83
2018-07-31T19:44:27.364Z,27.82
2018-07-31T19:45:30.034Z,27.79
2018-07-31T19:47:41.753Z,27.75
2018-07-31T19:48:44.918Z,27.81
2018-07-31T19:49:47.546Z,26.84
2018-07-31T19:50:50.215Z,27.84
2018-07-31T19:51:53.422Z,27.80
2018-07-31T19:52:56.365Z,27.77
2018-07-31T19:53:59.919Z,27.74
2018-07-31T19:55:02.574Z,27.77
2018-07-31T19:56:05.290Z,27.81
2018-07-31T19:57:07.872Z,27.86
2018-07-31T19:58:10.490Z,27.88
2018-07-31T19:59:13.687Z,27.86
2018-07-31T20:00:16.566Z,27.81
2018-07-31T20:01:19.232Z,27.80
2018-07-31T20:02:22.443Z,27.77
2018-07-31T20:03:25.313Z,27.75
2018-07-31T20:04:29.545Z,27.73
2018-07-31T20:05:32.419Z,26.92
2018-07-31T20:06:36.556Z,27.71
2018-07-31T20:07:41.093Z,27.71
2018-07-31T20:08:43.702Z,27.70
2018-07-31T20:13:49.226Z,27.66
